Time;durP1;ratioP1;P1;durP2;ratioP2;P2;SDS_P1;SDS_P2;PMS_P1;PMS_P2;Temp;Humidity;BMP_temperature;BMP_pressure;BME280_temperature;BME280_humidity;BME280_pressure;Samples;Min_cycle;Max_cycle;Signal;HPM_P1;HPM_P2
2021/12/20 00:02:21;;;;;;;6.47;1.90;;;16.10;64.90;;;;;;5053120;28;20132;-75
2021/12/20 00:04:51;;;;;;;5.90;2.33;;;16.10;65.30;;;;;;5050797;28;20091;-75
2021/12/20 00:07:18;;;;;;;4.82;1.83;;;16.10;65.30;;;;;;5050218;28;20130;-75
2021/12/20 00:09:46;;;;;;;5.13;1.80;;;16.10;64.20;;;;;;5050669;28;20131;-75
2021/12/20 00:12:13;;;;;;;7.07;2.10;;;;;;;;;;5050760;28;20112;-75
2021/12/20 00:14:40;;;;;;;5.70;2.40;;;16.00;65.30;;;;;;5050603;28;20055;-75
2021/12/20 00:17:07;;;;;;;4.90;2.00;;;16.10;65.30;;;;;;5050443;28;20140;-75
2021/12/20 00:19:34;;;;;;;7.85;2.50;;;16.00;64.90;;;;;;5063058;28;20485;-75
2021/12/20 00:22:00;;;;;;;7.28;2.42;;;15.90;65.20;;;;;;5070871;28;20131;-75
2021/12/20 00:24:27;;;;;;;6.70;2.30;;;;;;;;;;5070829;28;20059;-74
2021/12/20 00:26:55;;;;;;;7.13;2.00;;;15.90;65.10;;;;;;5070432;28;20083;-75
2021/12/20 00:29:22;;;;;;;7.63;2.20;;;15.90;65.30;;;;;;5070559;28;20084;-75
2021/12/20 00:31:49;;;;;;;4.18;1.98;;;;;;;;;;5073855;28;20531;-73
2021/12/20 00:34:16;;;;;;;6.78;2.00;;;16.00;65.50;;;;;;5074921;28;20136;-75
2021/12/20 00:36:43;;;;;;;6.32;2.33;;;15.90;65.60;;;;;;5072867;28;20151;-75
2021/12/20 00:41:55;;;;;;;5.20;2.17;;;15.90;65.40;;;;;;5074685;28;20131;-75
2021/12/20 00:44:22;;;;;;;5.63;1.95;;;15.80;65.50;;;;;;5074373;28;20127;-75
2021/12/20 00:46:49;;;;;;;4.80;2.00;;;15.50;65.30;;;;;;5074165;28;20135;-75
2021/12/20 00:49:16;;;;;;;6.25;1.95;;;;;;;;;;5074438;28;20131;-75
2021/12/20 00:51:43;;;;;;;8.20;2.17;;;15.80;65.60;;;;;;5074694;28;20107;-75
2021/12/20 00:54:09;;;;;;;5.15;2.17;;;15.50;65.50;;;;;;5072776;28;20127;-75
2021/12/20 00:56:36;;;;;;;6.03;2.17;;;16.10;63.10;;;;;;5073992;28;20136;-75
2021/12/20 00:59:04;;;;;;;7.00;2.30;;;15.70;65.60;;;;;;5074341;28;20413;-75
2021/12/20 01:01:31;;;;;;;6.57;2.17;;;15.80;65.30;;;;;;5074612;28;20091;-75
2021/12/20 01:03:57;;;;;;;4.53;2.05;;;15.20;65.10;;;;;;5074587;28;20136;-75
2021/12/20 01:06:24;;;;;;;5.28;2.05;;;15.70;61.30;;;;;;5074180;28;20134;-74
2021/12/20 01:08:52;;;;;;;6.60;1.92;;;15.70;65.40;;;;;;5074135;28;20076;-75
2021/12/20 01:11:22;;;;;;;8.80;2.10;;;15.70;61.70;;;;;;5073134;28;20052;-75
2021/12/20 01:13:49;;;;;;;6.05;1.90;;;15.50;65.50;;;;;;5075658;28;20063;-74
2021/12/20 01:16:17;;;;;;;5.15;1.85;;;15.60;65.40;;;;;;5075150;28;20102;-75
2021/12/20 01:18:44;;;;;;;5.57;1.92;;;15.70;65.50;;;;;;5074295;28;20123;-74
2021/12/20 01:21:11;;;;;;;6.00;2.30;;;15.50;62.60;;;;;;5074297;28;20136;-75
2021/12/20 01:23:39;;;;;;;5.15;2.03;;;15.70;65.70;;;;;;5074436;28;20052;-75
2021/12/20 01:26:05;;;;;;;5.72;1.85;;;15.60;65.60;;;;;;5072215;28;20051;-75
2021/12/20 01:28:32;;;;;;;6.43;1.77;;;15.60;65.50;;;;;;5074651;28;20529;-75
2021/12/20 01:30:59;;;;;;;5.10;2.10;;;15.50;61.60;;;;;;5074825;28;20140;-74
2021/12/20 01:33:27;;;;;;;5.03;1.80;;;15.60;65.70;;;;;;5075068;28;20116;-75
2021/12/20 01:35:55;;;;;;;5.50;1.88;;;15.70;65.80;;;;;;5075058;28;20497;-74
2021/12/20 01:38:21;;;;;;;4.50;1.80;;;15.60;65.50;;;;;;5074620;28;20068;-75
2021/12/20 01:40:48;;;;;;;4.32;1.85;;;15.50;65.90;;;;;;5074410;28;20131;-75
2021/12/20 01:43:17;;;;;;;6.70;2.38;;;;;;;;;;5073119;28;20544;-74
2021/12/20 01:45:44;;;;;;;4.15;1.77;;;15.50;62.90;;;;;;5073804;28;20048;-75
2021/12/20 01:48:13;;;;;;;5.75;1.75;;;15.30;65.50;;;;;;5074079;28;20508;-74
2021/12/20 01:51:01;;;;;;;5.30;1.88;;;15.60;66.00;;;;;;5074698;28;20201;-75
2021/12/20 01:53:27;;;;;;;3.75;1.67;;;15.50;61.80;;;;;;5073595;28;20059;-74
2021/12/20 01:55:55;;;;;;;5.30;2.45;;;15.40;65.80;;;;;;5073075;28;20136;-74
2021/12/20 01:58:22;;;;;;;4.47;1.80;;;15.00;65.40;;;;;;5072128;28;20136;-74
2021/12/20 02:03:33;;;;;;;5.32;2.22;;;15.50;66.00;;;;;;5072205;28;20049;-74
2021/12/20 02:06:05;;;;;;;6.75;2.10;;;15.40;65.70;;;;;;5071676;28;20400;-74
2021/12/20 02:08:32;;;;;;;6.45;2.17;;;15.50;65.60;;;;;;5071574;28;20052;-74
2021/12/20 02:11:00;;;;;;;3.78;1.60;;;15.50;65.90;;;;;;5072012;28;20139;-74
2021/12/20 02:13:30;;;;;;;4.13;1.65;;;15.40;65.80;;;;;;5071932;28;20140;-73
2021/12/20 02:15:57;;;;;;;6.40;2.00;;;15.50;65.60;;;;;;5071255;28;20076;-73
2021/12/20 02:18:24;;;;;;;4.35;1.77;;;;;;;;;;5056974;28;20511;-74
2021/12/20 02:20:52;;;;;;;5.40;1.75;;;15.40;65.90;;;;;;5051915;28;20136;-74
2021/12/20 02:23:19;;;;;;;3.35;1.60;;;15.30;65.80;;;;;;5051896;28;20155;-74
2021/12/20 02:25:46;;;;;;;6.03;1.85;;;15.40;65.90;;;;;;5051345;28;20507;-74
2021/12/20 02:28:13;;;;;;;4.45;1.77;;;15.30;63.40;;;;;;5051445;28;20131;-74
2021/12/20 02:30:51;;;;;;;5.45;2.00;;;15.50;66.00;;;;;;5051763;28;20137;-74
2021/12/20 02:38:50;;;;;;;6.05;1.75;;;15.40;66.10;;;;;;5071270;28;20056;-74
2021/12/20 02:41:18;;;;;;;5.57;1.63;;;15.40;66.00;;;;;;5071370;28;20553;-74
2021/12/20 02:43:53;;;;;;;3.90;1.65;;;14.70;65.30;;;;;;5069495;28;20084;-74
2021/12/20 02:46:29;;;;;;;4.47;1.50;;;15.40;65.60;;;;;;5070608;28;20044;-74
2021/12/20 02:48:56;;;;;;;5.88;2.00;;;15.30;65.80;;;;;;5071349;28;20135;-74
2021/12/20 02:51:26;;;;;;;4.97;1.85;;;15.40;59.40;;;;;;5069646;28;20151;-74
2021/12/20 02:53:52;;;;;;;5.38;1.70;;;15.50;65.60;;;;;;5070808;28;20079;-74
2021/12/20 02:56:19;;;;;;;5.28;1.77;;;15.40;64.80;;;;;;5073481;28;20084;-75
2021/12/20 02:58:46;;;;;;;5.28;2.03;;;15.40;65.60;;;;;;5073629;28;20159;-74
2021/12/20 03:01:13;;;;;;;4.82;1.80;;;14.90;65.30;;;;;;5073287;28;20052;-75
2021/12/20 03:03:39;;;;;;;4.53;1.60;;;15.50;65.70;;;;;;5073152;28;20071;-74
2021/12/20 03:06:09;;;;;;;4.85;1.80;;;15.90;65.80;;;;;;5072823;28;20127;-75
2021/12/20 03:08:38;;;;;;;3.45;1.60;;;15.30;65.40;;;;;;5071518;28;20508;-75
2021/12/20 03:11:05;;;;;;;3.97;1.63;;;;;;;;;;5073271;28;20060;-74
2021/12/20 03:13:33;;;;;;;4.47;1.65;;;;;;;;;;5073968;28;20135;-74
2021/12/20 03:16:00;;;;;;;3.20;1.55;;;15.50;64.60;;;;;;5072624;28;20098;-75
2021/12/20 03:18:27;;;;;;;3.67;1.50;;;15.40;65.60;;;;;;5071788;28;20056;-74
2021/12/20 03:20:54;;;;;;;4.32;1.63;;;15.50;62.10;;;;;;5071396;28;20139;-74
2021/12/20 03:23:21;;;;;;;6.15;1.90;;;15.00;65.10;;;;;;5071988;28;20131;-74
2021/12/20 03:25:49;;;;;;;4.57;1.85;;;15.50;62.70;;;;;;5071986;28;20056;-75
2021/12/20 03:28:16;;;;;;;3.13;1.60;;;15.60;62.20;;;;;;5073449;28;20473;-74
2021/12/20 03:30:44;;;;;;;3.58;1.70;;;15.60;65.30;;;;;;5072509;28;20084;-75
2021/12/20 03:33:10;;;;;;;4.13;1.70;;;16.30;65.70;;;;;;5072106;28;20110;-75
2021/12/20 03:35:37;;;;;;;3.58;1.60;;;16.50;65.70;;;;;;5063721;28;20127;-75
2021/12/20 03:38:04;;;;;;;3.47;1.65;;;15.50;60.30;;;;;;5053083;28;20136;-75
2021/12/20 03:40:31;;;;;;;4.28;1.58;;;15.50;65.30;;;;;;5052176;28;20141;-74
2021/12/20 03:42:59;;;;;;;4.28;1.60;;;15.60;65.40;;;;;;5053304;28;20088;-75
2021/12/20 03:45:26;;;;;;;3.15;1.30;;;15.60;65.10;;;;;;5051823;28;20552;-75
2021/12/20 03:47:52;;;;;;;3.05;1.55;;;15.50;62.90;;;;;;5064693;28;20135;-74
2021/12/20 03:50:20;;;;;;;4.32;1.48;;;15.60;65.40;;;;;;5072018;28;20131;-75
2021/12/20 03:52:47;;;;;;;2.78;1.30;;;15.60;63.30;;;;;;5071847;28;20573;-74
2021/12/20 03:55:14;;;;;;;3.85;1.67;;;15.60;58.90;;;;;;5072310;28;20124;-75
2021/12/20 03:57:41;;;;;;;5.82;1.60;;;15.50;64.10;;;;;;5071806;28;20127;-74
2021/12/20 04:00:11;;;;;;;3.13;1.50;;;15.60;65.20;;;;;;5069704;28;20131;-75
2021/12/20 04:02:41;;;;;;;3.25;1.60;;;16.40;65.70;;;;;;5072241;28;20044;-75
2021/12/20 04:05:08;;;;;;;3.85;1.50;;;15.60;65.00;;;;;;5071516;28;20052;-75
2021/12/20 04:07:35;;;;;;;3.05;1.45;;;;;;;;;;5075552;28;20140;-73
2021/12/20 04:10:02;;;;;;;3.45;1.60;;;15.60;65.10;;;;;;5075440;28;20151;-75
2021/12/20 04:12:28;;;;;;;4.00;1.75;;;15.70;65.10;;;;;;5075147;28;20135;-75
2021/12/20 04:14:55;;;;;;;2.70;1.50;;;15.70;61.70;;;;;;5074287;28;20545;-73
2021/12/20 04:17:23;;;;;;;3.78;1.80;;;15.60;65.10;;;;;;5054997;28;20136;-73
2021/12/20 04:19:50;;;;;;;2.50;1.38;;;15.60;64.70;;;;;;5053831;28;20087;-73
2021/12/20 04:22:18;;;;;;;4.28;1.63;;;15.60;64.80;;;;;;5054228;28;20136;-73
2021/12/20 04:24:45;;;;;;;2.55;1.27;;;15.60;58.70;;;;;;5053755;28;20045;-73
2021/12/20 04:27:12;;;;;;;4.40;1.63;;;15.60;64.60;;;;;;5053868;28;20078;-73
2021/12/20 04:29:39;;;;;;;3.70;1.50;;;15.70;64.80;;;;;;5053987;28;20135;-73
2021/12/20 04:32:06;;;;;;;4.03;1.65;;;15.60;60.80;;;;;;5055154;28;20057;-73
2021/12/20 04:34:34;;;;;;;4.25;2.00;;;15.70;64.70;;;;;;5053657;28;20132;-73
2021/12/20 04:37:02;;;;;;;4.03;1.50;;;15.70;64.80;;;;;;5053523;28;20139;-73
2021/12/20 04:39:31;;;;;;;2.60;1.58;;;15.70;64.90;;;;;;5053771;28;20080;-73
2021/12/20 04:42:00;;;;;;;3.15;1.45;;;;;;;;;;5053810;28;20461;-73
2021/12/20 04:44:26;;;;;;;4.03;1.58;;;15.70;64.90;;;;;;5053610;28;20057;-73
2021/12/20 04:46:53;;;;;;;4.53;1.45;;;15.00;64.40;;;;;;5053184;28;20108;-73
2021/12/20 04:49:20;;;;;;;2.53;1.55;;;15.40;61.60;;;;;;5054691;28;20065;-73
2021/12/20 04:51:48;;;;;;;2.90;1.40;;;16.50;65.20;;;;;;5053659;28;20051;-73
2021/12/20 04:54:15;;;;;;;3.95;1.67;;;15.60;64.60;;;;;;5053610;28;20081;-73
2021/12/20 04:56:41;;;;;;;3.53;1.48;;;15.50;64.60;;;;;;5053313;28;20156;-73
2021/12/20 04:59:08;;;;;;;4.25;1.50;;;15.60;59.60;;;;;;5053247;28;20136;-73
2021/12/20 05:01:35;;;;;;;3.63;1.50;;;15.70;64.60;;;;;;5053236;28;20076;-73
2021/12/20 05:04:01;;;;;;;4.75;1.60;;;15.60;64.70;;;;;;5053410;28;20049;-73
2021/12/20 05:06:29;;;;;;;2.95;1.23;;;15.80;59.20;;;;;;5054032;28;20091;-73
2021/12/20 05:08:57;;;;;;;3.42;1.50;;;15.60;58.50;;;;;;5053055;28;20096;-73
2021/12/20 05:11:26;;;;;;;2.83;1.55;;;;;;;;;;5053246;28;20080;-73
2021/12/20 05:13:52;;;;;;;3.10;1.38;;;15.50;59.10;;;;;;5053176;28;20132;-73
2021/12/20 05:16:20;;;;;;;7.03;2.50;;;15.60;64.70;;;;;;5052256;28;20147;-73
2021/12/20 05:18:47;;;;;;;4.20;1.65;;;15.60;61.80;;;;;;5052755;28;20048;-73
2021/12/20 05:21:14;;;;;;;2.67;1.38;;;15.00;64.20;;;;;;5052870;28;20059;-73
2021/12/20 05:23:41;;;;;;;3.88;1.55;;;15.50;60.10;;;;;;5054059;28;20092;-73
2021/12/20 05:26:09;;;;;;;3.72;1.50;;;15.70;64.50;;;;;;5053731;28;20049;-73
2021/12/20 05:28:35;;;;;;;4.95;1.60;;;15.50;64.70;;;;;;5052556;28;20128;-73
2021/12/20 05:31:02;;;;;;;2.55;1.40;;;15.10;64.50;;;;;;5056693;28;20481;-73
2021/12/20 05:33:29;;;;;;;3.45;1.45;;;15.70;60.00;;;;;;5072614;28;20119;-73
2021/12/20 05:35:56;;;;;;;3.65;1.40;;;15.60;64.70;;;;;;5072561;28;20083;-72
2021/12/20 05:38:22;;;;;;;4.22;1.40;;;15.50;64.40;;;;;;5072639;28;20131;-72
2021/12/20 05:40:49;;;;;;;3.45;1.48;;;15.70;61.20;;;;;;5071009;28;20568;-72
2021/12/20 05:43:17;;;;;;;4.28;1.70;;;15.20;64.40;;;;;;5072479;28;20058;-73
2021/12/20 05:45:44;;;;;;;3.88;1.50;;;15.70;64.70;;;;;;5072199;28;20135;-73
2021/12/20 05:48:11;;;;;;;3.45;1.30;;;15.60;64.50;;;;;;5072261;28;20056;-72
2021/12/20 05:50:38;;;;;;;2.50;1.27;;;;;;;;;;5064894;28;20540;-73
2021/12/20 05:53:04;;;;;;;3.00;1.40;;;15.50;64.70;;;;;;5052340;28;20468;-72
2021/12/20 05:55:31;;;;;;;3.22;1.27;;;15.60;64.70;;;;;;5052148;28;20131;-72
2021/12/20 05:57:58;;;;;;;3.28;1.55;;;15.30;64.50;;;;;;5052005;28;20472;-72
2021/12/20 06:00:26;;;;;;;3.53;1.23;;;15.50;64.40;;;;;;5052357;28;20092;-72
2021/12/20 06:02:53;;;;;;;3.22;1.38;;;15.50;64.70;;;;;;5052005;28;20394;-72
2021/12/20 06:05:20;;;;;;;3.40;1.42;;;15.50;58.20;;;;;;5061518;28;20577;-73
2021/12/20 06:07:47;;;;;;;2.97;1.35;;;15.60;64.40;;;;;;5071745;28;20128;-73
2021/12/20 06:10:14;;;;;;;2.85;1.40;;;14.30;57.50;;;;;;5072023;28;20091;-73
2021/12/20 06:12:41;;;;;;;4.93;1.55;;;15.70;64.50;;;;;;5071979;28;20139;-73
2021/12/20 06:15:09;;;;;;;3.50;1.42;;;15.40;59.40;;;;;;5071838;28;20501;-73
2021/12/20 06:17:37;;;;;;;2.92;1.23;;;15.60;64.50;;;;;;5071619;28;20135;-73
2021/12/20 06:20:04;;;;;;;4.25;1.88;;;15.60;64.60;;;;;;5071833;28;20080;-73
2021/12/20 06:22:32;;;;;;;2.33;1.20;;;15.60;64.30;;;;;;5060302;28;20145;-73
2021/12/20 06:24:58;;;;;;;3.58;1.40;;;15.60;60.00;;;;;;5051727;28;20132;-73
2021/12/20 06:27:25;;;;;;;3.88;1.60;;;15.40;64.50;;;;;;5051098;28;20525;-73
2021/12/20 06:29:52;;;;;;;2.72;1.30;;;15.50;64.50;;;;;;5051206;28;20131;-73
2021/12/20 06:32:19;;;;;;;2.00;1.27;;;;;;;;;;5051755;28;20159;-73
2021/12/20 06:34:47;;;;;;;3.60;1.35;;;15.60;64.50;;;;;;5051440;28;20063;-73
2021/12/20 06:37:14;;;;;;;3.70;1.38;;;15.50;61.10;;;;;;5052210;28;20486;-73
2021/12/20 06:39:41;;;;;;;3.97;1.50;;;15.60;64.40;;;;;;5063913;28;20084;-73
2021/12/20 06:42:08;;;;;;;4.45;1.42;;;15.60;64.40;;;;;;5071275;28;20132;-73
2021/12/20 06:44:35;;;;;;;2.60;1.45;;;;;;;;;;5071169;28;20415;-73
2021/12/20 06:47:02;;;;;;;5.22;1.90;;;15.50;64.20;;;;;;5070977;28;20131;-73
2021/12/20 06:49:29;;;;;;;2.53;1.38;;;;;;;;;;5071116;28;20556;-73
2021/12/20 06:52:00;;;;;;;3.83;2.00;;;15.50;64.40;;;;;;5071025;28;20450;-73
2021/12/20 06:54:26;;;;;;;4.43;1.67;;;15.50;64.40;;;;;;5071373;28;20053;-73
2021/12/20 06:56:53;;;;;;;3.63;1.52;;;;;;;;;;5069401;28;20051;-73
2021/12/20 06:59:20;;;;;;;3.35;1.40;;;15.40;64.10;;;;;;5071197;28;20135;-73
2021/12/20 07:01:47;;;;;;;3.67;1.40;;;15.60;64.40;;;;;;5057136;28;20048;-73
2021/12/20 07:04:15;;;;;;;2.88;1.40;;;15.10;58.50;;;;;;5051194;28;20136;-73
2021/12/20 07:06:42;;;;;;;2.92;1.45;;;15.10;62.40;;;;;;5050768;28;20428;-73
2021/12/20 07:09:10;;;;;;;3.88;1.70;;;15.50;64.20;;;;;;5051104;28;20463;-72
2021/12/20 07:11:36;;;;;;;4.90;1.65;;;15.50;64.40;;;;;;5050737;28;20553;-72
2021/12/20 07:14:04;;;;;;;5.20;1.45;;;;;;;;;;5067622;28;20086;-74
2021/12/20 07:16:33;;;;;;;3.55;1.58;;;;;;;;;;5070827;28;20585;-74
2021/12/20 07:19:00;;;;;;;5.93;1.80;;;15.00;60.50;;;;;;5070888;28;20493;-73
2021/12/20 07:21:27;;;;;;;5.22;1.67;;;15.50;64.30;;;;;;5070743;28;20135;-73
2021/12/20 07:23:54;;;;;;;3.22;1.25;;;15.40;64.20;;;;;;5070998;28;20124;-72
2021/12/20 07:26:22;;;;;;;4.78;1.70;;;15.50;64.00;;;;;;5070638;28;20537;-73
2021/12/20 07:28:48;;;;;;;3.83;1.50;;;15.50;64.10;;;;;;5068275;28;20163;-72
2021/12/20 07:31:16;;;;;;;3.38;1.70;;;15.50;64.30;;;;;;5050709;28;20093;-73
2021/12/20 07:33:44;;;;;;;2.63;1.35;;;15.00;63.90;;;;;;5050868;28;20160;-71
2021/12/20 07:36:11;;;;;;;3.83;1.55;;;15.50;63.70;;;;;;5050266;28;20412;-73
2021/12/20 07:38:38;;;;;;;3.17;1.67;;;;;;;;;;5050748;28;20060;-72
2021/12/20 07:41:05;;;;;;;4.10;1.90;;;15.50;64.20;;;;;;5054311;28;20168;-72
2021/12/20 07:43:33;;;;;;;3.38;1.38;;;15.20;63.80;;;;;;5054859;28;20652;-72
2021/12/20 07:46:00;;;;;;;2.92;1.40;;;15.50;64.00;;;;;;5055310;28;20056;-72
2021/12/20 07:48:29;;;;;;;3.80;1.80;;;14.90;59.40;;;;;;5056727;28;20133;-73
2021/12/20 07:50:57;;;;;;;4.05;1.55;;;15.60;63.90;;;;;;5059938;28;20057;-74
2021/12/20 07:53:24;;;;;;;5.45;1.80;;;;;;;;;;5064842;28;20056;-74
2021/12/20 07:55:51;;;;;;;4.05;1.60;;;15.50;64.00;;;;;;5054485;28;20136;-74
2021/12/20 07:58:18;;;;;;;6.43;1.52;;;15.50;63.80;;;;;;5054339;28;20140;-74
2021/12/20 08:00:46;;;;;;;2.78;1.35;;;15.20;58.60;;;;;;5054540;28;20140;-74
2021/12/20 08:03:13;;;;;;;5.43;1.65;;;;;;;;;;5054519;28;20140;-73
2021/12/20 08:05:40;;;;;;;3.83;1.60;;;15.50;64.10;;;;;;5053985;28;20057;-73
2021/12/20 08:08:07;;;;;;;2.15;1.20;;;;;;;;;;5054392;28;20118;-74
2021/12/20 08:10:34;;;;;;;3.80;1.67;;;15.60;63.90;;;;;;5064912;28;20140;-73
2021/12/20 08:13:01;;;;;;;3.83;1.60;;;14.90;63.60;;;;;;5062492;28;20131;-73
2021/12/20 08:15:28;;;;;;;2.72;1.38;;;15.10;63.60;;;;;;5073865;28;20056;-73
2021/12/20 08:17:56;;;;;;;3.65;1.50;;;15.50;57.60;;;;;;5073680;28;20056;-75
2021/12/20 08:20:24;;;;;;;5.28;1.42;;;15.60;64.10;;;;;;5061272;28;20052;-72
2021/12/20 08:22:51;;;;;;;3.58;1.60;;;;;;;;;;5060386;28;20044;-74
2021/12/20 08:25:18;;;;;;;4.40;1.60;;;15.50;57.60;;;;;;5053487;28;20057;-74
2021/12/20 08:27:45;;;;;;;2.65;1.42;;;15.40;64.00;;;;;;5051682;28;20045;-71
2021/12/20 08:30:12;;;;;;;3.05;1.40;;;15.60;58.60;;;;;;5053334;28;20051;-74
2021/12/20 08:32:39;;;;;;;3.63;1.50;;;15.60;64.10;;;;;;5061009;28;20052;-68
2021/12/20 08:35:08;;;;;;;2.90;1.27;;;15.50;57.50;;;;;;5062948;28;20048;-71
2021/12/20 08:37:35;;;;;;;2.17;1.17;;;15.60;62.00;;;;;;5061400;28;21494;-68
2021/12/20 08:40:03;;;;;;;3.72;1.45;;;15.50;60.00;;;;;;5062450;28;20135;-68
2021/12/20 08:42:29;;;;;;;2.85;1.55;;;15.30;63.60;;;;;;5062886;28;20067;-68
2021/12/20 08:44:56;;;;;;;3.22;1.35;;;15.30;60.50;;;;;;5065229;28;20481;-68
2021/12/20 08:47:23;;;;;;;2.17;1.30;;;15.60;64.10;;;;;;5063291;28;20132;-68
2021/12/20 08:49:49;;;;;;;2.08;1.27;;;15.60;64.10;;;;;;5062588;28;20127;-68
2021/12/20 08:52:17;;;;;;;3.22;1.38;;;15.50;60.40;;;;;;5064173;28;20051;-68
2021/12/20 08:54:44;;;;;;;4.88;1.88;;;15.40;60.60;;;;;;5062804;28;20493;-68
2021/12/20 08:57:11;;;;;;;3.47;1.58;;;15.50;63.60;;;;;;5064397;28;20044;-68
2021/12/20 08:59:38;;;;;;;3.55;1.80;;;15.50;63.60;;;;;;5062261;28;20131;-71
2021/12/20 09:02:07;;;;;;;2.20;1.33;;;15.60;59.50;;;;;;5059471;28;20051;-70
2021/12/20 09:04:34;;;;;;;2.45;1.40;;;;;;;;;;5053065;28;20087;-70
2021/12/20 09:07:02;;;;;;;2.47;1.35;;;;;;;;;;5052817;28;20045;-70
2021/12/20 09:09:36;;;;;;;2.63;1.50;;;15.50;57.20;;;;;;5051851;28;20140;-70
2021/12/20 09:12:04;;;;;;;2.70;1.40;;;15.50;63.60;;;;;;5056700;28;20103;-70
2021/12/20 09:14:33;;;;;;;2.80;1.55;;;15.60;60.20;;;;;;5054913;28;20761;-71
2021/12/20 09:16:59;;;;;;;3.88;1.50;;;15.40;63.50;;;;;;5054118;28;20049;-71
2021/12/20 09:19:26;;;;;;;2.88;1.50;;;15.60;63.80;;;;;;5056806;28;20653;-70
2021/12/20 09:21:53;;;;;;;2.47;1.20;;;15.00;63.30;;;;;;5062289;28;20131;-70
2021/12/20 09:24:20;;;;;;;3.10;1.45;;;15.10;63.60;;;;;;5064315;28;20549;-69
2021/12/20 09:26:48;;;;;;;3.72;1.45;;;15.60;63.70;;;;;;5062491;28;20124;-69
2021/12/20 09:29:14;;;;;;;2.38;1.33;;;15.70;63.80;;;;;;5055163;28;20136;-68
2021/12/20 09:31:42;;;;;;;3.33;1.50;;;15.50;60.00;;;;;;5053824;28;20141;-68
2021/12/20 09:34:10;;;;;;;3.22;1.30;;;;;;;;;;5056178;28;20076;-70
2021/12/20 09:36:37;;;;;;;2.30;1.27;;;;;;;;;;5054478;28;20398;-71
2021/12/20 09:39:07;;;;;;;3.28;1.40;;;15.30;63.20;;;;;;5059128;28;20056;-68
2021/12/20 09:44:23;;;;;;;3.45;1.95;;;15.60;62.90;;;;;;5070465;28;20064;-68
2021/12/20 09:46:50;;;;;;;1.90;1.30;;;15.20;58.60;;;;;;5052289;28;20053;-69
2021/12/20 09:49:16;;;;;;;3.85;1.50;;;15.40;63.50;;;;;;5052401;28;20063;-68
2021/12/20 09:51:43;;;;;;;2.65;1.23;;;15.80;63.80;;;;;;5052330;28;20078;-68
2021/12/20 09:54:10;;;;;;;3.15;1.65;;;15.60;63.40;;;;;;5053227;28;20481;-69
2021/12/20 09:56:38;;;;;;;2.35;1.30;;;15.80;63.70;;;;;;5052164;28;20059;-69
2021/12/20 09:59:05;;;;;;;2.33;1.10;;;15.60;63.50;;;;;;5052105;28;20064;-69
2021/12/20 10:01:33;;;;;;;2.10;1.17;;;15.50;56.80;;;;;;5054269;28;20045;-69
2021/12/20 10:04:00;;;;;;;2.03;1.27;;;15.50;62.20;;;;;;5051626;28;20127;-68
2021/12/20 10:06:27;;;;;;;2.47;1.30;;;15.00;62.80;;;;;;5051196;28;20063;-68
2021/12/20 10:08:56;;;;;;;1.83;1.10;;;;;;;;;;5053119;28;20123;-70
2021/12/20 10:11:25;;;;;;;2.10;1.30;;;14.80;62.70;;;;;;5035887;28;20057;-69
2021/12/20 10:14:02;;;;;;;2.03;1.08;;;15.60;57.50;;;;;;5052188;28;20159;-70
2021/12/20 10:16:29;;;;;;;1.88;1.20;;;15.60;63.30;;;;;;5060319;28;20060;-69
2021/12/20 10:18:58;;;;;;;1.90;1.20;;;15.50;63.00;;;;;;5071677;28;20135;-68
2021/12/20 10:21:34;;;;;;;1.63;1.20;;;15.60;63.30;;;;;;5072821;28;20416;-67
2021/12/20 10:24:01;;;;;;;1.88;1.20;;;15.60;63.30;;;;;;5071903;28;20139;-68
2021/12/20 10:26:27;;;;;;;1.48;1.10;;;15.70;63.10;;;;;;5071252;28;20453;-68
2021/12/20 10:28:54;;;;;;;1.98;1.10;;;15.50;57.50;;;;;;5070221;28;20135;-70
2021/12/20 10:31:22;;;;;;;2.30;1.10;;;15.40;60.00;;;;;;5064555;28;20083;-74
2021/12/20 10:33:52;;;;;;;1.58;1.10;;;16.40;63.40;;;;;;5060323;28;20067;-73
2021/12/20 10:36:20;;;;;;;1.65;1.15;;;15.10;58.20;;;;;;5060928;28;20048;-74
2021/12/20 10:38:56;;;;;;;1.85;1.02;;;15.60;58.60;;;;;;5061271;28;20124;-70
2021/12/20 10:41:28;;;;;;;3.13;1.20;;;15.50;55.60;;;;;;5061422;28;20102;-74
2021/12/20 10:43:59;;;;;;;3.17;1.10;;;15.50;55.50;;;;;;5060327;28;20044;-73
2021/12/20 10:46:27;;;;;;;1.73;1.10;;;15.10;61.70;;;;;;5060325;28;20053;-73
2021/12/20 10:48:59;;;;;;;5.30;1.20;;;15.20;55.40;;;;;;5058799;28;20410;-74
2021/12/20 10:51:28;;;;;;;4.38;1.10;;;15.50;62.20;;;;;;5058824;28;20481;-74
2021/12/20 10:54:01;;;;;;;3.38;1.40;;;15.50;55.50;;;;;;5060428;28;20068;-73
2021/12/20 10:56:28;;;;;;;3.90;1.10;;;15.60;62.10;;;;;;5062170;28;20056;-74
2021/12/20 10:58:56;;;;;;;2.55;0.90;;;15.60;55.40;;;;;;5060011;28;20460;-74
2021/12/20 11:01:37;;;;;;;3.55;1.27;;;15.60;62.10;;;;;;5059867;28;20091;-73
2021/12/20 11:04:06;;;;;;;1.70;1.15;;;15.40;61.60;;;;;;5060554;28;20209;-73
2021/12/20 11:06:56;;;;;;;3.95;1.00;;;15.10;61.30;;;;;;5061432;28;20143;-74
2021/12/20 11:09:23;;;;;;;2.58;1.00;;;15.40;61.50;;;;;;5061386;28;20048;-73
2021/12/20 11:11:51;;;;;;;1.50;0.90;;;15.80;61.20;;;;;;5086538;28;20045;-74
2021/12/20 11:14:19;;;;;;;2.35;0.90;;;15.80;57.60;;;;;;5058698;28;20088;-73
2021/12/20 11:16:46;;;;;;;1.58;1.15;;;15.70;55.00;;;;;;5057819;28;20133;-74
2021/12/20 11:19:24;;;;;;;1.80;1.08;;;15.80;61.80;;;;;;5060866;28;20144;-73
2021/12/20 11:21:55;;;;;;;3.25;1.10;;;15.90;61.90;;;;;;5059723;28;20082;-73
2021/12/20 11:24:22;;;;;;;1.25;0.88;;;15.80;61.50;;;;;;5058961;28;20511;-73
2021/12/20 11:26:49;;;;;;;2.55;1.00;;;16.00;62.00;;;;;;5059158;28;20059;-73
2021/12/20 11:29:16;;;;;;;1.38;0.80;;;16.00;56.00;;;;;;5059314;28;20076;-73
2021/12/20 11:31:43;;;;;;;1.33;1.02;;;15.10;61.30;;;;;;5059085;28;20127;-74
2021/12/20 11:34:10;;;;;;;2.78;1.02;;;;;;;;;;5060821;28;20083;-73
2021/12/20 11:36:37;;;;;;;1.58;1.27;;;15.90;61.70;;;;;;5058805;28;20144;-73
2021/12/20 11:39:06;;;;;;;2.63;0.98;;;15.90;61.50;;;;;;5061582;28;20461;-73
2021/12/20 11:41:33;;;;;;;1.98;1.00;;;15.90;59.90;;;;;;5060404;28;20057;-73
2021/12/20 11:44:00;;;;;;;2.97;1.00;;;15.10;61.40;;;;;;5059839;28;20132;-73
2021/12/20 11:46:30;;;;;;;1.17;0.85;;;15.90;60.70;;;;;;5058033;28;20123;-73
2021/12/20 11:48:59;;;;;;;1.67;1.10;;;15.90;61.50;;;;;;5059106;28;20083;-73
2021/12/20 11:51:27;;;;;;;1.75;0.90;;;15.80;61.80;;;;;;5061309;28;20067;-73
2021/12/20 11:53:54;;;;;;;2.17;1.00;;;15.20;61.30;;;;;;5059226;28;20113;-73
2021/12/20 11:59:14;;;;;;;2.63;1.33;;;15.90;55.10;;;;;;5069654;27;20370;-70
2021/12/20 12:01:41;;;;;;;3.40;1.30;;;;;;;;;;5049088;28;20471;-70
2021/12/20 12:04:08;;;;;;;1.52;0.90;;;15.30;61.00;;;;;;5048289;28;20061;-71
2021/12/20 12:06:35;;;;;;;2.00;1.00;;;15.80;61.40;;;;;;5051460;28;20049;-71
2021/12/20 12:09:02;;;;;;;5.43;1.10;;;15.90;61.80;;;;;;5048235;28;20049;-70
2021/12/20 12:11:34;;;;;;;2.35;1.10;;;15.30;61.20;;;;;;5045757;28;20052;-71
2021/12/20 12:14:35;;;;;;;2.80;1.20;;;15.10;61.20;;;;;;5048110;28;20089;-70
2021/12/20 12:17:05;;;;;;;3.50;1.10;;;15.90;60.00;;;;;;5053073;28;20040;-70
2021/12/20 12:19:41;;;;;;;2.38;0.98;;;15.40;61.50;;;;;;5055374;28;20045;-70
2021/12/20 12:22:41;;;;;;;2.55;1.10;;;15.10;61.50;;;;;;5046345;28;20453;-70
2021/12/20 12:25:09;;;;;;;1.35;1.00;;;15.80;61.90;;;;;;5045284;28;20057;-71
2021/12/20 12:27:37;;;;;;;2.92;1.20;;;15.00;61.90;;;;;;5047236;28;20485;-69
2021/12/20 12:30:30;;;;;;;1.45;1.00;;;15.50;55.70;;;;;;5048332;28;20449;-70
2021/12/20 12:33:23;;;;;;;2.08;1.10;;;15.90;62.20;;;;;;5050014;28;20049;-69
2021/12/20 12:35:51;;;;;;;1.75;1.08;;;15.80;56.00;;;;;;5045365;28;20139;-70
2021/12/20 12:38:19;;;;;;;2.78;1.20;;;15.80;62.10;;;;;;5048011;28;20498;-70
2021/12/20 12:40:49;;;;;;;2.28;1.17;;;15.80;62.30;;;;;;5044739;28;20053;-71
2021/12/20 12:43:15;;;;;;;3.65;1.35;;;15.90;62.40;;;;;;5046973;28;20053;-69
2021/12/20 12:45:50;;;;;;;2.40;1.40;;;15.80;62.30;;;;;;5047150;28;20124;-69
2021/12/20 12:48:37;;;;;;;2.10;1.20;;;15.70;62.10;;;;;;5046788;28;20175;-71
2021/12/20 12:51:05;;;;;;;3.72;1.73;;;15.70;56.10;;;;;;5047489;28;20057;-72
2021/12/20 12:53:40;;;;;;;1.85;1.13;;;15.70;56.20;;;;;;5047033;28;20053;-72
2021/12/20 12:56:29;;;;;;;2.63;1.45;;;15.70;56.40;;;;;;5047094;28;20100;-72
2021/12/20 12:59:20;;;;;;;4.70;1.30;;;15.70;61.40;;;;;;5051384;28;20374;-72
2021/12/20 13:01:50;;;;;;;2.63;1.30;;;16.40;60.50;;;;;;5066565;28;20137;-71
2021/12/20 13:04:18;;;;;;;3.08;1.67;;;15.70;62.60;;;;;;5066747;28;20585;-72
2021/12/20 13:06:44;;;;;;;3.63;1.30;;;15.80;62.70;;;;;;5066414;28;20148;-72
2021/12/20 13:09:11;;;;;;;3.17;1.42;;;15.70;60.40;;;;;;5060808;28;20118;-72
2021/12/20 13:11:38;;;;;;;3.45;1.60;;;15.60;62.90;;;;;;5053533;28;20087;-72
2021/12/20 13:14:08;;;;;;;5.35;1.70;;;15.80;57.20;;;;;;5053416;28;20091;-72
2021/12/20 13:16:37;;;;;;;4.20;1.58;;;;;;;;;;5039377;28;20447;-72
2021/12/20 13:19:05;;;;;;;2.40;1.10;;;16.40;63.00;;;;;;5033263;28;20056;-72
2021/12/20 13:21:49;;;;;;;4.53;1.50;;;15.70;62.90;;;;;;5033484;28;20057;-72